Latest Coastal Weather Observations for Portland Airport

IDS60701

Issued at 4:21 pm CST Wednesday 28 September 2016 (issued every 10 minutes, with the page automatically refreshed every 10 minutes)

About coastal observations | Map of coastal stations | Coastal observations for SA | Marine services | Other Formats
Station Details ID: 090171 Name: CASHMORE AIRPORT Lat: -38.31 Lon: 141.47 Height: 80.9 m
Data from the previous 72 hours. | See also: Recent months at Portland Airport
Date/Time
CST
Temp
°C
Wind Pressure Rain since
9am
mm
Weather Cloud Vis
km
Sea
Height
m
Swell
Dir  Spd
kts
Gust
kts
hPa Trend Height
m
Period
s
Dir
28/04:00pm 15.5 NNE 13 20 995.8 - 0.2 - - 10 - - - -
28/03:30pm 15.7 NNE 17 27 996.3 - 0.2 - - 10 - - - -
28/03:26pm 15.8 NNE 16 27 996.4 - 0.2 - - 10 - - - -
28/03:00pm 15.9 NNE 16 25 997.1 - 0.2 - - 10 - - - -
28/02:46pm 16.1 NNE 17 29 997.3 - 0.2 - - 10 - - - -
28/02:30pm 16.2 NNE 17 26 997.7 - 0.2 - Cloudy 10 - - - -
28/02:00pm 16.2 NNE 15 26 998.6 - 0.2 - - 10 - - - -
28/01:30pm 16.8 NE 15 25 999.6 - 0.2 - Partly cloudy 10 - - - -
28/01:28pm 16.8 NE 15 25 999.6 - 0.2 - Partly cloudy 10 - - - -
28/01:00pm 16.9 NE 14 22 1000.1 - 0.2 - Partly cloudy 10 - - - -
28/12:30pm 16.9 NNE 15 25 1000.7 - 0.2 - Partly cloudy 10 - - - -
28/12:22pm 16.8 NNE 15 25 1001.8 - 0.2 - Partly cloudy 10 - - - -
28/12:00pm 16.5 NNE 14 20 1002.2 - 0.0 - - 10 - - - -
28/11:30am 16.4 NNE 14 21 1003.2 - 0.0 - - 10 - - - -
28/11:00am 16.3 NNE 13 19 1004.6 - 0.0 - - 10 - - - -
28/10:30am 15.5 N 14 20 1005.8 - 0.0 - - 10 - - - -
28/10:00am 14.9 N 15 21 1006.5 - 0.0 - - 10 - - - -
28/09:30am 14.1 N 13 18 1007.3 - 0.0 - - 10 - - - -
28/09:00am 13.4 N 12 17 1008.0 - 0.0 - - 10 - - - -
28/08:30am 12.1 N 9 15 1008.5 - 0.2 - - 10 - - - -
28/08:00am 11.0 N 9 13 1009.0 - 0.2 - - 10 - - - -
28/07:30am 9.3 NNE 7 10 1009.4 - 0.2 - - 10 - - - -
28/07:00am 9.0 NNE 8 11 1009.8 - 0.2 - - 10 - - - -
28/06:30am 8.0 N 7 9 1010.1 - 0.2 - - 10 - - - -
28/06:00am 8.0 N 7 9 1010.0 - 0.2 - Partly cloudy 10 - - - -
28/05:30am 8.6 N 7 9 1010.0 - 0.2 - Mostly cloudy 10 - - - -
28/05:00am 9.1 N 6 9 1010.1 - 0.2 - Partly cloudy 10 - - - -
28/04:30am 9.5 N 6 8 1010.2 - 0.2 - Partly cloudy 10 - - - -
28/04:23am 9.6 N 6 7 1010.1 - 0.2 - Partly cloudy 10 - - - -
28/04:04am 9.9 N 5 7 1010.2 - 0.2 - Partly cloudy 10 - - - -
28/04:00am 9.9 N 5 7 1010.2 - 0.2 - Partly cloudy 10 - - - -
28/03:44am 10.1 NNW 6 8 1010.3 - 0.2 - Partly cloudy 10 - - - -
28/03:30am 10.2 NNW 7 9 1010.3 - 0.2 - Partly cloudy 10 - - - -
28/03:00am 10.4 NNW 6 7 1010.5 - 0.2 - Cloudy 10 - - - -
28/02:30am 10.4 NNW 6 8 1010.6 - 0.2 - Mostly cloudy 10 - - - -
28/02:03am 10.3 NNW 5 7 1010.8 - 0.2 - Partly cloudy 10 - - - -
28/02:00am 10.3 NNW 6 8 1010.9 - 0.2 - Partly cloudy 10 - - - -
28/01:30am 10.3 NNW 5 7 1011.1 - 0.2 - Partly cloudy 10 - - - -
28/01:14am 10.2 NNW 6 8 1011.1 - 0.2 - Partly cloudy 10 - - - -
28/01:00am 10.2 NNW 6 9 1011.1 - 0.2 - Partly cloudy 10 - - - -
28/12:30am 10.4 NW 8 11 1011.5 - 0.2 - Cloudy 10 - - - -
28/12:00am 10.2 NW 8 12 1011.6 - 0.2 - Cloudy 10 - - - -
 
Date/Time
CST
Temp
°C
Wind Pressure Rain since
9am
mm
Weather Cloud Vis
km
Sea
Height
m
Swell
Dir  Spd
kts
Gust
kts
hPa Trend Height
m
Period
s
Dir
27/11:30pm 10.2 NW 9 15 1011.7 - 0.2 Recent precip. Cloudy 10 - - - -
27/11:28pm 10.1 NW 9 15 1011.7 - 0.2 - Partly cloudy 10 - - - -
27/11:00pm 10.0 NW 8 11 1011.7 - 0.2 - Partly cloudy 10 - - - -
27/10:30pm 10.1 WNW 7 8 1011.8 - 0.0 - Partly cloudy 9 - - - -
27/10:22pm 10.2 NW 8 11 1011.8 - 0.0 - Partly cloudy 10 - - - -
27/10:00pm 10.6 WNW 11 15 1011.8 - 0.0 - Partly cloudy 6 - - - -
27/09:30pm 11.0 NNW 7 10 1011.6 - 0.0 - Partly cloudy 10 - - - -
27/09:00pm 10.5 NNW 7 9 1011.7 - 0.0 - Partly cloudy 10 - - - -
27/08:30pm 9.9 N 7 9 1011.7 - 0.0 - Cloudy 10 - - - -
27/08:00pm 10.3 N 6 7 1011.8 - 0.0 - Partly cloudy 10 - - - -
27/07:30pm 11.3 NW 8 11 1011.7 - 0.0 - Partly cloudy 10 - - - -
27/07:00pm 11.4 NW 9 12 1011.8 - 0.0 - Partly cloudy 10 - - - -
27/06:30pm 11.8 NW 11 15 1011.8 - 0.0 - Partly cloudy 10 - - - -
27/06:00pm 12.3 WNW 11 15 1011.7 - 0.0 - Partly cloudy 10 - - - -
27/05:30pm 12.8 WNW 12 16 1011.7 - 0.0 - Partly cloudy 10 - - - -
27/05:00pm 13.4 WNW 11 18 1011.6 - 0.0 - Partly cloudy 10 - - - -
27/04:30pm 13.4 WNW 12 18 1011.6 - 0.0 - Cloudy 10 - - - -
27/04:00pm 13.3 WNW 15 21 1011.4 - 0.0 - Partly cloudy 10 - - - -
27/03:30pm 14.0 WNW 17 25 1011.5 - 0.0 - Partly cloudy 10 - - - -
27/03:00pm 13.7 WNW 17 23 1011.5 - 0.0 - Partly cloudy 10 - - - -
27/02:30pm 14.2 WNW 18 22 1011.4 - 0.0 - - 10 - - - -
27/02:00pm 14.0 WNW 17 23 1011.4 - 0.0 - - 10 - - - -
27/01:30pm 13.9 W 16 21 1011.6 - 0.0 - Partly cloudy 10 - - - -
27/01:00pm 13.8 W 16 20 1011.9 - 0.0 - - 10 - - - -
27/12:30pm 13.7 WNW 17 23 1012.0 - 0.0 - - 10 - - - -
27/12:00pm 13.6 WNW 16 22 1012.0 - 0.0 - Partly cloudy 10 - - - -
27/11:30am 13.1 WNW 18 25 1012.3 - 0.0 - Partly cloudy 10 - - - -
27/11:00am 13.1 WNW 18 25 1012.5 - 0.0 - Partly cloudy 10 - - - -
27/10:30am 12.8 WNW 15 24 1012.5 - 0.0 - Partly cloudy 10 - - - -
27/10:00am 12.6 WNW 14 19 1012.6 - 0.0 - Partly cloudy 10 - - - -
27/09:30am 12.2 W 15 20 1012.5 - 0.0 - Partly cloudy 10 - - - -
27/09:00am 11.8 W 16 20 1012.5 - 0.0 - Partly cloudy 10 - - - -
27/08:30am 10.8 W 14 19 1012.3 - 7.2 - Cloudy 10 - - - -
27/08:00am 10.4 W 13 17 1012.0 - 7.2 - Partly cloudy 10 - - - -
27/07:30am 10.3 W 11 16 1011.7 - 7.2 - Partly cloudy 10 - - - -
27/07:00am 9.9 W 10 16 1011.4 - 7.2 - Partly cloudy 10 - - - -
27/06:30am 9.5 W 12 17 1011.1 - 7.2 - Partly cloudy 10 - - - -
27/06:00am 9.4 W 14 20 1010.8 - 7.2 - Partly cloudy 10 - - - -
27/05:30am 9.7 W 17 21 1010.3 - 7.2 - Cloudy 10 - - - -
27/05:00am 9.7 WSW 16 22 1009.7 - 7.2 - Partly cloudy 10 - - - -
27/04:30am 9.9 WSW 17 23 1009.5 - 7.2 - Partly cloudy 10 - - - -
27/04:19am 9.7 WSW 18 24 1009.4 - 7.2 - Partly cloudy 10 - - - -
27/04:16am 9.7 WSW 19 25 1009.4 - 7.2 - Partly cloudy 10 - - - -
27/04:00am 9.5 W 17 24 1009.3 - 7.2 - Partly cloudy 4 - - - -
27/03:55am 9.5 W 17 25 1009.3 - 7.0 - Partly cloudy 5 - - - -
27/03:49am 9.4 W 18 25 1009.2 - 7.0 - Partly cloudy 6 - - - -
27/03:30am 9.8 WSW 19 26 1008.9 - 7.0 - Partly cloudy 10 - - - -
27/03:18am 10.0 WSW 17 24 1008.9 - 7.0 - Partly cloudy 10 - - - -
27/03:14am 10.0 WSW 16 24 1008.8 - 7.0 - Partly cloudy 10 - - - -
27/03:01am 9.4 WSW 15 26 1008.7 - 7.0 - Partly cloudy 5 - - - -
27/03:00am 9.5 WSW 15 24 1008.8 - 7.0 - Partly cloudy 5 - - - -
27/02:59am 9.5 WSW 14 24 1008.8 - 7.0 - Partly cloudy 6 - - - -
27/02:54am 9.8 WSW 14 20 1008.8 - 6.8 - Partly cloudy 10 - - - -
27/02:38am 9.8 WSW 15 20 1008.6 - 6.8 - Partly cloudy 6 - - - -
27/02:30am 9.8 WSW 12 20 1008.5 - 6.4 Recent precip. Cloudy 10 - - - -
27/02:17am 8.7 WNW 6 8 1008.6 - 6.2 - Partly cloudy 10 - - - -
27/02:00am 7.4 N 6 7 1008.7 - 6.2 - Partly cloudy 10 - - - -
27/01:30am 7.3 NNW 9 11 1008.8 - 6.2 - Partly cloudy 10 - - - -
27/01:00am 6.6 NNW 8 10 1009.0 - 6.2 - Partly cloudy 10 - - - -
27/12:30am 6.6 NNW 8 10 1009.0 - 6.2 - Partly cloudy 10 - - - -
27/12:00am 6.7 NNW 8 11 1009.2 - 6.0 - Partly cloudy 10 - - - -
 
Date/Time
CST
Temp
°C
Wind Pressure Rain since
9am
mm
Weather Cloud Vis
km
Sea
Height
m
Swell
Dir  Spd
kts
Gust
kts
hPa Trend Height
m
Period
s
Dir
26/11:30pm 5.9 NNW 8 11 1009.3 - 6.0 - Mostly clear 10 - - - -
26/11:00pm 6.0 NNW 8 11 1009.5 - 6.0 - Partly cloudy 10 - - - -
26/10:30pm 6.1 N 8 10 1009.5 - 6.0 - Partly cloudy 10 - - - -
26/10:00pm 6.1 NNW 8 10 1009.6 - 6.0 - - 10 - - - -
26/09:30pm 7.0 NW 9 11 1009.6 - 6.0 - Partly cloudy 10 - - - -
26/09:00pm 7.1 NW 8 11 1009.5 - 6.0 - - 10 - - - -
26/08:30pm 7.4 NW 11 14 1009.4 - 6.0 Recent precip. Mostly cloudy 10 - - - -
26/08:00pm 7.5 NW 9 12 1009.3 - 5.8 - Partly cloudy 10 - - - -
26/07:30pm 8.3 NW 9 13 1009.0 - 5.8 - Partly cloudy 10 - - - -
26/07:00pm 8.7 WNW 9 13 1008.7 - 5.8 - Partly cloudy 10 - - - -
26/06:30pm 8.2 WNW 9 11 1008.5 - 5.8 - Partly cloudy 10 - - - -
26/06:08pm 8.4 WNW 10 14 1008.4 - 5.8 - Partly cloudy 10 - - - -
26/06:00pm 8.4 WNW 13 18 1008.3 - 5.8 - Partly cloudy 10 - - - -
26/05:52pm 8.5 WNW 18 28 1008.1 - 5.6 - Partly cloudy 2 - - - -
26/05:44pm 8.7 NW 15 26 1008.1 - 4.0 - Partly cloudy 6 - - - -
26/05:30pm 10.0 NW 9 13 1007.9 - 2.6 - Mostly cloudy 10 - - - -
26/05:00pm 10.5 WNW 13 20 1007.7 - 2.6 - Partly cloudy 10 - - - -
26/04:30pm 10.7 NW 10 13 1007.4 - 2.6 - Partly cloudy 10 - - - -
26/04:00pm 10.8 NNW 10 13 1007.5 - 2.6 - Partly cloudy 10 - - - -
26/03:30pm 9.9 NNW 9 13 1007.8 - 2.6 - Partly cloudy 10 - - - -
26/03:00pm 8.5 NNW 8 11 1008.0 - 2.6 - Partly cloudy 10 - - - -
26/02:33pm 8.8 NW 16 26 1008.6 - 1.6 - Partly cloudy 8 - - - -
26/02:30pm 8.8 NW 17 26 1008.5 - 1.6 Rain Cloudy 8 - - - -
26/02:09pm 9.9 WNW 15 26 1008.1 - 1.2 - Partly cloudy 10 - - - -
26/02:00pm 9.7 WNW 14 23 1008.2 - 1.0 - Partly cloudy 9 - - - -
26/01:30pm 12.1 NW 17 29 1007.6 - 0.0 - Partly cloudy 10 - - - -
26/01:28pm 12.9 NW 15 27 1007.5 - 0.0 - Partly cloudy 10 - - - -
26/01:00pm 14.3 NNW 13 20 1007.8 - 0.0 - Partly cloudy 10 - - - -
26/12:30pm 14.4 NNW 13 18 1008.1 - 0.0 - Partly cloudy 10 - - - -
26/12:00pm 15.1 NNW 13 21 1008.2 - 0.0 - Partly cloudy 10 - - - -
26/11:30am 14.8 NNW 12 17 1008.7 - 0.0 - Mostly cloudy 10 - - - -
26/11:00am 14.0 NNW 12 17 1009.3 - 0.0 - Partly cloudy 10 - - - -
26/10:30am 14.0 NNW 14 22 1009.8 - 0.0 - Partly cloudy 10 - - - -
26/10:00am 13.8 NNW 13 21 1010.1 - 0.0 - Partly cloudy 10 - - - -
26/09:30am 12.5 NNW 13 20 1010.4 - 0.0 - Partly cloudy 10 - - - -
26/09:00am 12.8 NW 13 19 1010.7 - 0.0 - Partly cloudy 10 - - - -
26/08:30am 11.5 NNW 11 15 1010.8 - 0.0 - Cloudy 10 - - - -
26/08:00am 9.2 N 9 12 1010.7 - 0.0 - Partly cloudy 10 - - - -
26/07:30am 8.4 N 7 9 1010.8 - 0.0 - - 10 - - - -
26/07:00am 8.2 N 8 12 1011.1 - 0.0 - - 10 - - - -
26/06:30am 6.6 N 8 10 1011.1 - 0.0 - - 10 - - - -
26/06:00am 6.1 N 7 9 1011.0 - 0.0 - - 10 - - - -
26/05:30am 5.8 N 6 7 1011.2 - 0.0 - Partly cloudy 10 - - - -
26/05:00am 5.9 NNW 7 9 1011.2 - 0.0 - Partly cloudy 10 - - - -
26/04:30am 5.8 NNW 7 10 1011.3 - 0.0 - Partly cloudy 10 - - - -
26/04:00am 5.5 NNW 6 7 1011.3 - 0.0 - - 10 - - - -
26/03:30am 5.7 NNW 6 8 1011.4 - 0.0 - - 10 - - - -
26/03:00am 6.1 NNW 6 8 1011.5 - 0.0 - Partly cloudy 10 - - - -
26/02:30am 6.8 NNW 7 9 1011.8 - 0.0 - Mostly clear 10 - - - -
26/02:00am 6.8 NNW 7 9 1012.1 - 0.0 - - 10 - - - -
26/01:30am 7.7 NNW 8 10 1012.5 - 0.0 - Partly cloudy 10 - - - -
26/01:00am 7.3 NNW 5 7 1012.7 - 0.0 - Cloudy 10 - - - -
26/12:30am 7.4 NW 1 4 1013.0 - 0.0 - Partly cloudy 10 - - - -
26/12:00am 7.9 NNW 5 7 1013.2 - 0.0 - Partly cloudy 10 - - - -
 
Date/Time
CST
Temp
°C
Wind Pressure Rain since
9am
mm
Weather Cloud Vis
km
Sea
Height
m
Swell
Dir  Spd
kts
Gust
kts
hPa Trend Height
m
Period
s
Dir
25/11:30pm 8.0 NNW 6 7 1013.2 - 0.0 - Cloudy 10 - - - -
25/11:00pm 8.1 NNW 6 8 1013.4 - 0.0 - - 10 - - - -
25/10:30pm 7.9 NNW 7 8 1013.5 - 0.0 - - 10 - - - -
25/10:00pm 7.4 NNW 4 6 1013.8 - 0.0 - Partly cloudy 10 - - - -
25/09:30pm 7.7 NNW 7 7 1013.7 - 0.0 - - 10 - - - -
25/09:00pm 7.8 N 5 7 1013.7 - 0.0 - Partly cloudy 10 - - - -
25/08:30pm 8.2 N 5 6 1013.8 - 0.0 - Cloudy 10 - - - -
25/08:00pm 8.3 N 5 6 1013.8 - 0.0 - Partly cloudy 10 - - - -
25/07:30pm 9.1 WNW 6 8 1013.7 - 0.0 - - 10 - - - -
25/07:00pm 8.8 WNW 6 7 1013.4 - 0.0 - - 10 - - - -
25/06:30pm 9.0 W 6 8 1013.1 - 0.0 - - 10 - - - -
25/06:00pm 9.6 WNW 6 7 1012.8 - 0.0 - - 10 - - - -
25/05:30pm 10.8 WNW 7 9 1012.6 - 0.0 - Mostly clear 10 - - - -
25/05:00pm 11.2 W 10 13 1012.3 - 0.0 - - 10 - - - -
25/04:30pm 11.6 W 11 15 1012.2 - 0.0 - - 10 - - - -
25/04:00pm 11.6 WNW 10 14 1012.2 - 0.0 - - 10 - - - -

Other Formats:

Comma delimited format used in spreadsheet applications
http://www.bom.gov.au/fwo/IDS60701/IDS60701.94828.axf

JavaScript Object Notation format (JSON) in row-major order
http://www.bom.gov.au/fwo/IDS60701/IDS60701.94828.json